Tiruchirappalli, India

9:16 PM IST on February 14, 2016 (GMT +0530)
Tiruchirappalli | | Change Station
CLOSE
Current Station
Airport
Location: Triuchirapalli,
Elevation: 289 ft
Nearby Weather Stations

Elev 289 ft 10.77 °N, 78.71 °E | Updated 16 minutes ago

Haze
Haze
79 °F
Feels Like 79 °F
N
8
Wind Variable Wind from East

Today
High -- | Low -- °F
--% Chance of Precip.
Yesterday
High -- | Low -- °F
Precip. -- in
Pressure 29.92 in
Visibility 3.1 miles
Clouds Few 1800 ft
Dew Point 66 °F
Humidity 65%
Rainfall 0.00 in
Snow Depth Not available.
6:36 AM 6:22 PM
Waxing Crescent, 43% visible
METAR VOTR 141530Z 09007KT 5000 HZ FEW018 26/19 Q1013 NOSIG
Pressure 29.92 in
Visibility 3.1 miles
Clouds Few 1800 ft
Dew Point 66 °F
Humidity 65%
Rainfall 0.00 in
Snow Depth Not available.
6:36 AM 6:22 PM
Waxing Crescent, 43% visible
METAR VOTR 141530Z 09007KT 5000 HZ FEW018 26/19 Q1013 NOSIG

10-Day Weather Forecast

No radar image for this location.
×

Almanac

Astronomy

Feb. 14, 2016 Rise Set
Actual Time
Civil Twilight
Nautical Twilight
Astronomical Twilight
Moon
Length of Visible Light
Length of Day
Tomorrow will be .
, % of the Moon is Illuminated

Today's Extremes

Country Highs Country Lows

Community

WunderPhotos

Upload Photos

1,892,802 photos uploaded!

WunderBlog® & News

Nearby

Air Quality

  Air Quality AQ Index Pollutant
Not available.

Snow Depth

Station Depth Elevation

Earthquake Activity

City Distance Mag. Time & Date
Minimum magnitude displayed is 2.5.

Coastal Water Temperatures

Place Temperature

Stations

Nearby Weather Stations

Station Location Temp. Windchill Dew Point Humidity Wind Precip. Elev Updated Type